Time;durP1;ratioP1;P1;durP2;ratioP2;P2;SDS_P1;SDS_P2;PMS_P1;PMS_P2;Temp;Humidity;BMP_temperature;BMP_pressure;BME280_temperature;BME280_humidity;BME280_pressure;Samples;Min_cycle;Max_cycle;Signal;HPM_P1;HPM_P2
2021/07/15 00:02:20;;;;;;;1.10;0.55;;;;;;;15.79;99.23;98721.78;5060017;28;20088;-65
2021/07/15 00:04:46;;;;;;;3.08;0.47;;;;;;;15.80;99.26;98722.66;5060182;28;20104;-65
2021/07/15 00:07:14;;;;;;;0.50;0.50;;;;;;;15.78;99.49;98717.41;5057770;28;20048;-65
2021/07/15 00:09:40;;;;;;;1.25;0.70;;;;;;;15.80;99.50;98693.47;5059119;28;20212;-65
2021/07/15 00:12:08;;;;;;;1.08;0.60;;;;;;;15.83;99.57;98677.41;5061731;28;20021;-65
2021/07/15 00:14:34;;;;;;;1.20;0.45;;;;;;;15.81;99.61;98642.09;5060638;28;20017;-65
2021/07/15 00:17:00;;;;;;;0.70;0.70;;;;;;;15.77;99.48;98609.53;5062884;28;20013;-65
2021/07/15 00:19:28;;;;;;;4.90;1.20;;;;;;;15.76;99.57;98606.94;5065351;28;20214;-65
2021/07/15 00:21:55;;;;;;;6.55;1.60;;;;;;;15.79;99.51;98601.50;5065296;28;20114;-65
2021/07/15 00:24:21;;;;;;;6.03;1.50;;;;;;;15.78;99.41;98584.72;5065277;28;20024;-65
2021/07/15 00:26:47;;;;;;;3.05;1.55;;;;;;;15.79;99.23;98557.22;5053378;28;20025;-65
2021/07/15 00:29:13;;;;;;;2.35;1.85;;;;;;;15.78;99.17;98558.16;5048661;28;20021;-65
2021/07/15 00:31:39;;;;;;;6.78;2.00;;;;;;;15.79;99.18;98554.56;5048117;28;20021;-65
2021/07/15 00:34:04;;;;;;;10.93;2.60;;;;;;;15.76;99.23;98549.41;5050148;28;20097;-65
2021/07/15 00:36:30;;;;;;;6.43;2.40;;;;;;;15.73;99.26;98551.34;5048269;28;20057;-65
2021/07/15 00:38:55;;;;;;;9.00;2.70;;;;;;;15.76;99.21;98552.06;5047442;28;20017;-65
2021/07/15 00:41:21;;;;;;;6.57;2.30;;;;;;;15.80;99.27;98551.03;5048212;28;20032;-65
2021/07/15 00:43:47;;;;;;;5.13;2.22;;;;;;;15.78;99.39;98542.25;5048350;28;20044;-65
2021/07/15 00:46:12;;;;;;;3.03;2.22;;;;;;;15.79;99.22;98553.75;5047168;28;20018;-65
2021/07/15 00:48:38;;;;;;;6.72;2.92;;;;;;;15.76;99.08;98553.88;5048290;28;20051;-65
2021/07/15 00:51:05;;;;;;;10.20;2.83;;;;;;;15.75;99.24;98558.28;5047067;28;20020;-65
2021/07/15 00:53:31;;;;;;;4.50;2.80;;;;;;;15.76;99.14;98543.25;5058833;28;20036;-65
2021/07/15 00:55:57;;;;;;;16.38;3.72;;;;;;;15.77;99.36;98543.19;5059357;28;20378;-65
2021/07/15 00:58:23;;;;;;;9.82;3.65;;;;;;;15.80;99.06;98543.06;5061633;28;20028;-65
2021/07/15 01:00:49;;;;;;;3.22;2.33;;;;;;;15.83;99.17;98545.59;5059423;28;20339;-65
2021/07/15 01:03:17;;;;;;;5.22;2.70;;;;;;;15.83;99.26;98534.97;5060096;28;20024;-65
2021/07/15 01:05:46;;;;;;;9.00;2.90;;;;;;;15.80;99.26;98532.44;5060658;28;20212;-65
2021/07/15 01:08:13;;;;;;;6.53;3.55;;;;;;;15.77;99.30;98540.53;5060377;28;20053;-65
2021/07/15 01:10:52;;;;;;;4.53;2.70;;;;;;;15.79;99.43;98548.44;5057712;28;20025;-65
2021/07/15 01:13:35;;;;;;;4.43;3.05;;;;;;;15.83;99.39;98542.06;5050451;28;20025;-65
2021/07/15 01:16:03;;;;;;;18.35;4.90;;;;;;;15.83;99.51;98532.31;5050147;28;20012;-65
2021/07/15 01:18:32;;;;;;;11.13;4.38;;;;;;;15.80;99.08;98535.09;5047793;28;20021;-65
2021/07/15 01:21:19;;;;;;;13.02;5.05;;;;;;;15.76;99.58;98536.13;5046529;28;20040;-65
2021/07/15 01:24:09;;;;;;;10.20;5.43;;;;;;;15.79;99.52;98530.69;5060641;28;20044;-65
2021/07/15 01:26:58;;;;;;;14.48;4.97;;;;;;;15.80;99.61;98535.09;5060682;28;20025;-65
2021/07/15 01:29:54;;;;;;;13.95;4.93;;;;;;;15.82;99.67;98543.84;5059327;28;20017;-65
2021/07/15 01:32:22;;;;;;;15.20;4.97;;;;;;;15.82;99.51;98543.84;5058213;28;20048;-65
2021/07/15 01:34:52;;;;;;;13.70;4.82;;;;;;;15.83;99.70;98550.91;5060582;28;20037;-65
2021/07/15 01:37:18;;;;;;;15.00;4.85;;;;;;;15.84;99.80;98541.13;5060767;28;20013;-65
2021/07/15 01:39:46;;;;;;;8.90;4.45;;;;;;;15.84;99.59;98535.81;5063943;28;20025;-65
2021/07/15 01:42:16;;;;;;;13.75;4.75;;;;;;;15.81;99.57;98536.81;5063953;28;20025;-65
2021/07/15 01:44:42;;;;;;;11.02;5.20;;;;;;;15.82;99.66;98540.34;5064008;28;20021;-65
2021/07/15 01:47:08;;;;;;;14.27;5.03;;;;;;;15.83;99.60;98531.44;5063898;28;20028;-65
2021/07/15 01:49:33;;;;;;;15.80;6.07;;;;;;;15.81;99.81;98544.78;5063880;28;20040;-65
2021/07/15 01:52:00;;;;;;;15.23;6.55;;;;;;;15.81;99.91;98552.75;5062406;28;20055;-65
2021/07/15 01:54:28;;;;;;;13.32;7.03;;;;;;;15.81;99.81;98533.28;5046134;28;20101;-65
2021/07/15 01:56:55;;;;;;;14.70;7.60;;;;;;;15.85;99.81;98538.41;5044958;28;20017;-65
2021/07/15 01:59:27;;;;;;;12.45;6.78;;;;;;;15.84;99.68;98549.09;5043795;28;20021;-65
2021/07/15 02:01:56;;;;;;;13.35;6.82;;;;;;;15.82;99.85;98559.75;5042637;28;20032;-65
2021/07/15 02:04:23;;;;;;;17.60;7.20;;;;;;;15.82;99.85;98546.50;5044838;28;20245;-65
2021/07/15 02:06:51;;;;;;;11.23;6.63;;;;;;;15.81;100.00;98547.44;5045892;28;20250;-65
2021/07/15 02:09:19;;;;;;;10.73;5.60;;;;;;;15.83;99.82;98550.91;5046978;28;20029;-65
2021/07/15 02:11:50;;;;;;;20.33;6.55;;;;;;;15.83;99.91;98547.38;5046071;28;20030;-65
2021/07/15 02:14:16;;;;;;;12.35;6.30;;;;;;;15.84;99.89;98552.63;5047263;28;20013;-65
2021/07/15 02:16:48;;;;;;;13.13;6.72;;;;;;;15.84;99.92;98549.09;5047126;28;20127;-65
2021/07/15 02:19:15;;;;;;;13.27;6.63;;;;;;;15.79;99.96;98554.56;5047101;28;20088;-65
2021/07/15 02:21:41;;;;;;;12.75;6.20;;;;;;;15.80;100.00;98555.47;5047370;28;20017;-65
2021/07/15 02:24:09;;;;;;;15.55;6.20;;;;;;;15.82;100.00;98554.47;5049911;28;20017;-65
2021/07/15 02:26:37;;;;;;;9.55;5.00;;;;;;;15.84;100.00;98557.03;5050912;28;20021;-66
2021/07/15 02:29:02;;;;;;;11.43;5.35;;;;;;;15.83;100.00;98569.47;5049748;28;20024;-66
2021/07/15 02:31:37;;;;;;;11.38;6.38;;;;;;;15.81;100.00;98557.16;5059404;28;20208;-65
2021/07/15 02:34:09;;;;;;;10.60;5.78;;;;;;;15.81;100.00;98562.47;5057096;28;20028;-65
2021/07/15 02:36:36;;;;;;;12.25;5.80;;;;;;;15.83;100.00;98572.13;5062322;28;20062;-65
2021/07/15 02:39:05;;;;;;;13.75;6.50;;;;;;;15.85;100.00;98561.44;5063725;28;20016;-65
2021/07/15 02:41:30;;;;;;;14.68;6.40;;;;;;;15.85;100.00;98562.28;5062290;28;20081;-65
2021/07/15 02:43:56;;;;;;;19.05;7.25;;;;;;;15.86;100.00;98558.72;5062335;28;20013;-65
2021/07/15 02:46:22;;;;;;;21.67;6.30;;;;;;;15.86;100.00;98558.72;5062259;28;20021;-65
2021/07/15 02:48:47;;;;;;;11.45;5.38;;;;;;;15.88;100.00;98559.50;5061346;28;20216;-65
2021/07/15 02:51:13;;;;;;;10.15;5.60;;;;;;;15.85;100.00;98561.44;5049471;28;20017;-65
2021/07/15 02:53:39;;;;;;;15.07;6.45;;;;;;;15.80;100.00;98545.72;5049379;28;20088;-65
2021/07/15 02:56:17;;;;;;;9.38;5.45;;;;;;;15.81;100.00;98539.47;5062349;28;20219;-65
2021/07/15 02:58:56;;;;;;;13.43;6.55;;;;;;;15.78;100.00;98536.94;5062072;28;20021;-65
2021/07/15 03:01:25;;;;;;;12.65;6.53;;;;;;;15.74;100.00;98535.34;5061508;28;20028;-65
2021/07/15 03:04:04;;;;;;;15.52;6.72;;;;;;;15.71;100.00;98545.22;5062478;28;20025;-65
2021/07/15 03:06:41;;;;;;;12.50;6.35;;;;;;;15.71;100.00;98535.47;5062260;28;20037;-65
2021/07/15 03:09:11;;;;;;;10.98;5.90;;;;;;;15.72;100.00;98534.53;5063327;28;20287;-65
2021/07/15 03:11:51;;;;;;;9.60;5.13;;;;;;;15.72;100.00;98542.50;5066026;28;20059;-65
2021/07/15 03:14:19;;;;;;;14.32;6.25;;;;;;;15.73;100.00;98576.09;5065444;28;20017;-65
2021/07/15 03:16:46;;;;;;;9.45;4.57;;;;;;;15.75;100.00;98547.69;5050056;28;20021;-65
2021/07/15 03:19:14;;;;;;;11.73;4.85;;;;;;;15.78;100.00;98547.56;5048853;28;20072;-65
2021/07/15 03:21:43;;;;;;;19.42;6.60;;;;;;;15.76;100.00;98548.56;5049903;28;20049;-65
2021/07/15 03:24:13;;;;;;;11.85;5.45;;;;;;;15.79;100.00;98545.78;5049919;28;20022;-65
2021/07/15 03:26:40;;;;;;;10.98;5.90;;;;;;;15.74;100.00;98535.34;5048727;28;20088;-65
2021/07/15 03:29:07;;;;;;;12.02;6.03;;;;;;;15.71;100.00;98546.09;5061669;28;20209;-66
2021/07/15 03:31:34;;;;;;;14.07;6.25;;;;;;;15.74;100.00;98539.78;5062555;28;20027;-66
2021/07/15 03:34:00;;;;;;;15.30;6.45;;;;;;;15.77;100.00;98532.56;5060999;28;20080;-66
2021/07/15 03:36:26;;;;;;;15.90;6.65;;;;;;;15.79;100.00;98538.66;5066212;28;20020;-66
2021/07/15 03:38:53;;;;;;;21.65;7.85;;;;;;;15.78;100.00;98544.03;5066151;28;20036;-65
2021/07/15 03:41:21;;;;;;;21.30;7.90;;;;;;;15.79;100.00;98541.31;5066004;28;20035;-65
2021/07/15 03:43:47;;;;;;;17.95;6.63;;;;;;;15.82;100.00;98551.81;5064406;28;20025;-65
2021/07/15 03:46:13;;;;;;;20.05;6.80;;;;;;;15.83;100.00;98548.25;5060524;28;20028;-65
2021/07/15 03:48:39;;;;;;;19.45;7.38;;;;;;;15.78;100.00;98542.25;5060058;28;20017;-65
2021/07/15 03:51:07;;;;;;;21.67;7.70;;;;;;;15.80;100.00;98545.72;5061026;28;20048;-65
2021/07/15 03:53:33;;;;;;;15.48;7.15;;;;;;;15.78;100.00;98526.31;5049342;28;20043;-65
2021/07/15 03:56:01;;;;;;;16.10;7.38;;;;;;;15.76;99.96;98522.84;5049319;28;20056;-65
2021/07/15 03:58:28;;;;;;;17.38;7.22;;;;;;;15.76;99.98;98512.25;5049264;28;20036;-65
2021/07/15 04:01:04;;;;;;;18.75;7.50;;;;;;;15.73;100.00;98523.03;5049669;28;20024;-65
2021/07/15 04:03:32;;;;;;;24.08;7.50;;;;;;;15.72;100.00;98529.22;5061175;28;20197;-65
2021/07/15 04:06:00;;;;;;;19.60;6.82;;;;;;;15.76;100.00;98549.41;5059196;28;20028;-65
2021/07/15 04:08:27;;;;;;;19.83;7.70;;;;;;;15.78;100.00;98552.88;5046766;28;20255;-65
2021/07/15 04:10:54;;;;;;;15.77;6.68;;;;;;;15.82;100.00;98559.75;5046969;28;20071;-65
2021/07/15 04:13:24;;;;;;;12.38;6.22;;;;;;;15.89;100.00;98571.00;5044612;28;20281;-65
2021/07/15 04:16:21;;;;;;;13.50;6.97;;;;;;;15.92;99.80;98648.72;5044546;28;20021;-65
2021/07/15 04:18:48;;;;;;;14.60;6.78;;;;;;;15.96;99.92;98601.66;5031240;28;20180;-65
2021/07/15 04:21:16;;;;;;;14.55;6.85;;;;;;;15.96;99.79;98593.72;5049762;28;20034;-65
2021/07/15 04:23:43;;;;;;;14.38;6.85;;;;;;;15.97;99.53;98593.66;5047106;28;20021;-65
2021/07/15 04:26:09;;;;;;;12.70;6.38;;;;;;;15.98;99.37;98587.41;5047473;28;20017;-65
2021/07/15 04:28:35;;;;;;;13.68;5.95;;;;;;;15.98;99.41;98590.06;5045427;28;20381;-65
2021/07/15 04:31:18;;;;;;;14.05;7.13;;;;;;;16.05;99.42;98593.34;5052951;28;20013;-65
2021/07/15 04:33:46;;;;;;;15.57;6.78;;;;;;;16.07;99.54;98602.94;5059865;28;20030;-65
2021/07/15 04:36:12;;;;;;;15.63;7.10;;;;;;;16.10;99.46;98618.75;5057297;28;20312;-65
2021/07/15 04:38:38;;;;;;;16.90;6.78;;;;;;;16.12;99.64;98616.91;5057649;28;20021;-65
2021/07/15 04:41:04;;;;;;;14.15;6.30;;;;;;;16.16;99.60;98610.53;5060494;28;20009;-65
2021/07/15 04:43:30;;;;;;;10.43;5.28;;;;;;;16.17;99.59;98620.22;5057785;28;20039;-65
2021/07/15 04:45:58;;;;;;;16.55;7.03;;;;;;;16.13;99.71;98623.94;5055566;28;20088;-65
2021/07/15 04:48:23;;;;;;;13.02;6.13;;;;;;;16.17;99.55;98625.53;5060955;28;20024;-65
2021/07/15 04:50:51;;;;;;;14.38;7.43;;;;;;;16.19;99.80;98634.31;5064758;28;20027;-65
2021/07/15 04:53:20;;;;;;;17.10;7.47;;;;;;;16.26;99.85;98633.13;5064712;28;20032;-65
2021/07/15 04:55:47;;;;;;;14.98;6.90;;;;;;;16.35;99.35;98632.75;5064689;28;20362;-65
2021/07/15 04:58:14;;;;;;;17.67;7.20;;;;;;;16.41;99.19;98629.81;5064675;28;20276;-65
2021/07/15 05:00:40;;;;;;;20.75;6.50;;;;;;;16.40;98.88;98638.75;5064523;28;20385;-65
2021/07/15 05:03:34;;;;;;;12.20;5.70;;;;;;;16.40;98.63;98665.31;5065061;28;20324;-65
2021/07/15 05:06:02;;;;;;;13.70;6.90;;;;;;;16.41;98.71;98651.09;5064422;28;20029;-65
2021/07/15 05:08:28;;;;;;;12.35;5.53;;;;;;;16.44;98.73;98653.63;5064468;28;20029;-65
2021/07/15 05:10:54;;;;;;;20.65;7.20;;;;;;;16.43;98.75;98654.59;5063341;28;20017;-65
2021/07/15 05:13:20;;;;;;;13.77;6.72;;;;;;;16.44;98.56;98644.78;5064372;28;20020;-65
2021/07/15 05:15:50;;;;;;;17.55;6.32;;;;;;;16.51;98.52;98647.13;5064352;28;20025;-65
2021/07/15 05:18:16;;;;;;;19.10;6.35;;;;;;;16.53;98.09;98645.28;5064284;28;20032;-65
2021/07/15 05:20:42;;;;;;;12.57;5.68;;;;;;;16.52;97.40;98632.91;5064438;28;20032;-65
2021/07/15 05:23:07;;;;;;;11.55;5.75;;;;;;;16.62;97.38;98639.56;5063080;28;20097;-65
2021/07/15 05:25:33;;;;;;;12.93;5.85;;;;;;;16.64;96.85;98648.31;5064195;28;20041;-65
2021/07/15 05:27:58;;;;;;;12.02;5.78;;;;;;;16.72;96.71;98651.53;5064160;28;20048;-65
2021/07/15 05:30:24;;;;;;;11.80;5.80;;;;;;;16.78;96.23;98648.59;5064012;28;20024;-65
2021/07/15 05:32:49;;;;;;;8.75;5.70;;;;;;;16.81;96.34;98664.41;5064065;28;20063;-65
2021/07/15 05:35:15;;;;;;;9.40;5.45;;;;;;;16.80;97.16;98657.38;5064041;28;20025;-65
2021/07/15 05:37:40;;;;;;;9.32;4.25;;;;;;;16.70;96.85;98653.38;5063986;28;20052;-65
2021/07/15 05:40:07;;;;;;;8.35;4.70;;;;;;;16.77;97.03;98654.84;5063926;28;20025;-65
2021/07/15 05:42:32;;;;;;;6.35;3.22;;;;;;;16.74;96.73;98649.66;5063892;28;20036;-65
2021/07/15 05:44:58;;;;;;;7.30;3.63;;;;;;;16.73;97.39;98658.56;5063892;28;20025;-65
2021/07/15 05:47:23;;;;;;;7.95;4.57;;;;;;;16.66;97.32;98667.75;5063885;28;20028;-65
2021/07/15 05:49:48;;;;;;;10.43;3.50;;;;;;;16.72;96.57;98666.59;5063870;28;20194;-65
2021/07/15 05:52:14;;;;;;;6.38;3.50;;;;;;;16.74;96.71;98670.91;5063856;28;20029;-65
2021/07/15 05:54:39;;;;;;;5.13;3.35;;;;;;;16.73;96.15;98669.19;5063803;28;20335;-65
2021/07/15 05:57:06;;;;;;;6.75;4.15;;;;;;;16.80;96.33;98670.66;5066508;28;20025;-65
2021/07/15 05:59:34;;;;;;;8.00;4.40;;;;;;;16.77;96.45;98676.09;5070467;28;20253;-65
2021/07/15 06:02:00;;;;;;;7.43;4.72;;;;;;;16.74;96.59;98680.69;5070336;28;20032;-65
2021/07/15 06:04:26;;;;;;;8.40;5.57;;;;;;;16.74;96.40;98681.53;5070340;28;20255;-65
2021/07/15 06:06:53;;;;;;;7.80;5.10;;;;;;;16.78;96.34;98683.16;5070193;28;20070;-65
2021/07/15 06:09:18;;;;;;;7.63;4.10;;;;;;;16.81;96.15;98677.69;5070328;28;20047;-65
2021/07/15 06:11:43;;;;;;;7.68;4.45;;;;;;;16.85;95.64;98681.09;5070361;28;20316;-65
2021/07/15 06:14:09;;;;;;;8.00;3.88;;;;;;;16.93;95.82;98693.09;5070283;28;20091;-65
2021/07/15 06:16:34;;;;;;;5.35;4.03;;;;;;;17.05;95.18;98689.91;5070245;28;20032;-65
2021/07/15 06:19:00;;;;;;;5.28;3.42;;;;;;;17.17;94.74;98686.72;5070315;28;20032;-65
2021/07/15 06:21:25;;;;;;;8.15;3.90;;;;;;;17.37;94.08;98692.94;5070168;28;20035;-65
2021/07/15 06:23:51;;;;;;;6.78;4.50;;;;;;;17.51;93.19;98679.88;5070465;28;20028;-65
2021/07/15 06:26:16;;;;;;;6.75;3.80;;;;;;;17.75;92.10;98676.09;5070271;28;20319;-65
2021/07/15 06:28:42;;;;;;;6.05;3.47;;;;;;;18.01;92.57;98691.69;5070241;28;20029;-65
2021/07/15 06:31:07;;;;;;;5.85;3.90;;;;;;;18.23;93.07;98681.72;5070430;28;20037;-65
2021/07/15 06:33:32;;;;;;;3.95;3.10;;;;;;;18.71;90.37;98689.97;5070140;28;20027;-65
2021/07/15 06:36:00;;;;;;;4.88;3.35;;;;;;;19.61;86.53;98694.97;5070144;28;20025;-65
2021/07/15 06:38:29;;;;;;;3.08;2.13;;;;;;;19.56;85.24;98697.00;5070366;28;20036;-65
2021/07/15 06:40:56;;;;;;;4.10;1.92;;;;;;;19.30;84.97;98690.38;5070028;28;20035;-65
2021/07/15 06:43:21;;;;;;;3.25;1.75;;;;;;;19.20;84.40;98686.44;5070123;28;20082;-65
2021/07/15 06:45:47;;;;;;;2.47;2.00;;;;;;;19.20;83.04;98681.13;5070086;28;20025;-65
2021/07/15 06:48:12;;;;;;;2.55;1.70;;;;;;;19.20;82.84;98683.78;5070073;28;20028;-65
2021/07/15 06:50:37;;;;;;;2.63;1.65;;;;;;;19.29;83.72;98679.81;5070110;28;20024;-65
2021/07/15 06:53:04;;;;;;;2.35;1.70;;;;;;;19.44;83.78;98729.69;5069988;28;20087;-65
2021/07/15 06:55:29;;;;;;;6.20;2.17;;;;;;;19.51;83.42;98699.91;5070017;28;20016;-65
2021/07/15 06:57:55;;;;;;;4.82;1.65;;;;;;;19.63;83.17;98706.41;5069988;28;20021;-65
2021/07/15 07:00:22;;;;;;;2.42;1.55;;;;;;;20.31;80.16;98731.03;5069840;28;20084;-65
2021/07/15 07:02:48;;;;;;;2.65;1.50;;;;;;;20.30;80.92;98718.63;5069882;28;20025;-65
2021/07/15 07:05:15;;;;;;;2.38;1.50;;;;;;;20.51;79.66;98724.56;5069896;28;20025;-65
2021/07/15 07:07:42;;;;;;;4.18;1.70;;;;;;;20.39;81.29;98718.13;5069477;28;20250;-65
2021/07/15 07:10:09;;;;;;;4.15;1.88;;;;;;;20.74;80.52;98714.25;5065858;28;20027;-65
2021/07/15 07:12:35;;;;;;;2.63;1.80;;;;;;;21.22;77.73;98716.72;5066679;28;20029;-65
2021/07/15 07:15:02;;;;;;;2.08;1.58;;;;;;;21.36;74.51;98713.19;5066625;28;20041;-65
2021/07/15 07:17:27;;;;;;;2.10;1.50;;;;;;;21.75;75.88;98715.22;5066603;28;20028;-65
2021/07/15 07:19:53;;;;;;;1.83;1.25;;;;;;;21.61;71.33;99726.13;5066512;28;20278;-65
2021/07/15 07:22:18;;;;;;;3.03;1.50;;;;;;;22.56;71.99;99949.63;5066457;28;20295;-65
2021/07/15 07:24:43;;;;;;;1.27;1.15;;;;;;;23.43;68.83;99864.69;5066433;28;20131;-65
2021/07/15 07:27:09;;;;;;;2.60;1.10;;;;;;;23.17;68.90;99545.47;5066378;28;20021;-65
2021/07/15 07:29:34;;;;;;;2.50;1.20;;;;;;;22.58;68.23;99443.19;5066398;28;20021;-65
2021/07/15 07:32:00;;;;;;;5.18;1.35;;;;;;;22.78;70.73;99418.81;5066259;28;20028;-65
2021/07/15 07:34:25;;;;;;;1.42;1.00;;;;;;;22.20;72.74;99398.78;5066295;28;20031;-65
2021/07/15 07:36:51;;;;;;;3.70;1.20;;;;;;;22.14;74.80;99206.03;5066233;28;20016;-65
2021/07/15 07:39:16;;;;;;;2.50;1.40;;;;;;;23.26;72.70;99045.34;5066174;28;20047;-65
2021/07/15 07:41:42;;;;;;;2.30;1.60;;;;;;;24.22;67.82;98942.06;5066162;28;20029;-65
2021/07/15 07:44:07;;;;;;;5.70;1.92;;;;;;;24.77;66.76;98902.19;5066092;28;20039;-65
2021/07/15 07:46:33;;;;;;;2.03;1.27;;;;;;;25.41;62.13;101589.19;5066309;28;20021;-65
2021/07/15 07:48:59;;;;;;;1.95;1.38;;;;;;;26.09;62.20;100258.59;5065950;28;20087;-65
2021/07/15 07:51:24;;;;;;;2.50;1.30;;;;;;;25.96;60.37;99979.56;5065967;28;20021;-65
2021/07/15 07:53:51;;;;;;;2.95;1.38;;;;;;;26.86;58.43;99806.38;5065919;28;20024;-65
2021/07/15 07:56:17;;;;;;;2.70;1.10;;;;;;;27.02;57.58;99640.34;5065827;28;20021;-65
2021/07/15 07:58:43;;;;;;;3.40;1.13;;;;;;;26.03;60.85;99541.97;5065923;28;20048;-65
2021/07/15 08:01:08;;;;;;;1.92;1.33;;;;;;;24.72;63.15;99361.22;5065957;28;20044;-65
2021/07/15 08:03:34;;;;;;;1.63;1.42;;;;;;;24.33;62.10;99165.47;5065912;28;20247;-65
2021/07/15 08:06:00;;;;;;;3.30;1.10;;;;;;;23.96;63.88;99471.91;5065539;28;20025;-65
2021/07/15 08:08:26;;;;;;;2.50;1.10;;;;;;;24.38;63.89;99351.72;5065639;28;20024;-65
2021/07/15 08:10:52;;;;;;;4.63;1.00;;;;;;;23.83;65.60;99184.03;5065578;28;20067;-65
2021/07/15 08:13:17;;;;;;;3.58;1.25;;;;;;;23.12;69.57;99144.66;5065754;28;20021;-65
2021/07/15 08:15:43;;;;;;;4.60;1.35;;;;;;;22.73;70.13;99163.22;5065535;28;20017;-65
2021/07/15 08:18:08;;;;;;;2.30;1.58;;;;;;;22.38;70.93;99165.28;5065446;28;20021;-65
2021/07/15 08:20:34;;;;;;;1.55;1.30;;;;;;;22.18;71.56;99122.66;5065149;28;20370;-65
2021/07/15 08:22:59;;;;;;;3.05;1.75;;;;;;;21.78;73.51;99075.00;5065376;28;20312;-65
2021/07/15 08:25:25;;;;;;;5.18;1.50;;;;;;;21.40;74.60;99051.28;5065306;28;20017;-65
2021/07/15 08:27:51;;;;;;;2.63;0.90;;;;;;;21.11;74.28;99031.50;5065307;28;20021;-65
2021/07/15 08:30:18;;;;;;;2.05;1.10;;;;;;;20.84;73.81;99017.78;5065194;28;20017;-65
2021/07/15 08:32:43;;;;;;;7.53;1.35;;;;;;;20.85;75.22;99015.97;5065071;28;20084;-65
2021/07/15 08:35:09;;;;;;;14.15;1.50;;;;;;;20.61;76.25;99015.50;5065108;28;20238;-65
2021/07/15 08:37:35;;;;;;;2.92;1.30;;;;;;;20.90;75.59;99041.53;5065082;28;20020;-65
2021/07/15 08:40:03;;;;;;;1.65;1.42;;;;;;;21.07;75.37;99044.19;5064951;28;20020;-65
2021/07/15 08:42:29;;;;;;;5.07;1.90;;;;;;;21.14;73.86;99018.78;5065261;28;20297;-65
2021/07/15 08:44:54;;;;;;;5.00;2.15;;;;;;;21.19;75.76;99021.22;5064954;28;20024;-65
2021/07/15 08:47:20;;;;;;;3.45;1.75;;;;;;;21.47;75.77;99074.97;5064888;28;20063;-65
2021/07/15 08:49:46;;;;;;;4.28;1.63;;;;;;;21.29;72.73;99039.38;5064823;28;20020;-65
2021/07/15 08:52:15;;;;;;;4.90;1.40;;;;;;;21.24;73.46;99027.19;5064790;28;20083;-65
2021/07/15 08:57:37;;;;;;;1.70;1.30;;;;;;;21.09;72.58;99003.94;5010832;28;20038;-65
2021/07/15 09:00:08;;;;;;;1.73;1.20;;;;;;;21.05;74.67;98997.91;5064618;28;20055;-65
2021/07/15 09:02:34;;;;;;;1.77;1.37;;;;;;;21.06;75.47;98999.63;5064561;28;20067;-65
2021/07/15 09:04:59;;;;;;;2.55;1.40;;;;;;;20.97;75.31;98994.78;5064492;28;20278;-65
2021/07/15 09:07:25;;;;;;;4.28;1.52;;;;;;;20.79;75.04;98979.69;5064285;28;20036;-65
2021/07/15 09:09:52;;;;;;;5.43;2.72;;;;;;;20.60;76.06;98968.28;5064453;28;20044;-65
2021/07/15 09:12:18;;;;;;;2.33;1.77;;;;;;;20.66;78.95;98967.94;5064393;28;20346;-65
2021/07/15 09:14:48;;;;;;;3.17;2.13;;;;;;;20.72;79.60;98972.97;5064372;28;20021;-65
2021/07/15 09:17:15;;;;;;;3.08;2.05;;;;;;;20.80;76.84;98953.81;5064422;28;20284;-65
2021/07/15 09:19:42;;;;;;;1.80;1.60;;;;;;;20.83;76.72;98949.16;5064550;28;20025;-65
2021/07/15 09:22:17;;;;;;;2.33;1.70;;;;;;;20.71;75.38;98939.13;5064221;28;20029;-65
2021/07/15 09:24:44;;;;;;;4.32;1.60;;;;;;;20.66;77.11;99021.44;5064335;28;20021;-65
2021/07/15 09:27:12;;;;;;;4.15;2.00;;;;;;;20.52;78.71;98972.31;5064249;28;20020;-65
2021/07/15 09:29:38;;;;;;;3.70;2.03;;;;;;;20.31;75.92;98960.94;5064182;28;20370;-65
2021/07/15 09:32:04;;;;;;;2.13;1.52;;;;;;;20.37;76.92;98944.59;5063637;28;20080;-65
2021/07/15 09:34:32;;;;;;;1.90;1.70;;;;;;;20.21;77.23;98938.34;5064061;28;20029;-65
2021/07/15 09:36:58;;;;;;;2.10;1.60;;;;;;;20.23;78.15;98947.16;5064073;28;20021;-65
2021/07/15 09:39:25;;;;;;;2.83;1.80;;;;;;;20.17;78.01;98941.25;5064019;28;20324;-65
2021/07/15 09:42:05;;;;;;;1.67;1.27;;;;;;;20.23;75.97;98947.16;5063951;28;20316;-65
2021/07/15 09:44:35;;;;;;;2.45;1.67;;;;;;;20.24;78.18;98932.81;5063966;28;20025;-65
2021/07/15 09:47:02;;;;;;;1.80;1.55;;;;;;;20.29;77.33;98929.91;5063968;28;20337;-65
2021/07/15 09:49:35;;;;;;;3.38;2.15;;;;;;;20.24;78.58;98919.47;5063926;28;20092;-65
2021/07/15 09:52:02;;;;;;;3.92;1.77;;;;;;;20.30;78.50;98927.16;5064078;28;20062;-65
2021/07/15 09:54:28;;;;;;;7.78;2.22;;;;;;;20.26;77.99;98925.59;5063820;28;20017;-65
2021/07/15 09:56:53;;;;;;;2.72;1.75;;;;;;;20.32;78.39;98922.59;5063874;28;20096;-65
2021/07/15 09:59:19;;;;;;;2.30;1.90;;;;;;;20.16;77.94;98907.47;5063826;28;20343;-65
2021/07/15 10:01:54;;;;;;;3.25;2.08;;;;;;;20.23;77.81;98909.72;5063695;28;20032;-65
2021/07/15 10:04:27;;;;;;;2.25;1.85;;;;;;;20.30;77.31;98910.25;5063695;28;20017;-65
2021/07/15 10:06:54;;;;;;;3.35;2.13;;;;;;;20.22;77.52;98902.63;5063592;28;20045;-65
2021/07/15 10:09:22;;;;;;;3.88;2.47;;;;;;;20.54;76.50;98909.75;5063688;28;20017;-65
2021/07/15 10:11:48;;;;;;;3.25;1.77;;;;;;;20.77;76.23;98893.31;5063696;28;20020;-65
2021/07/15 10:14:18;;;;;;;3.35;2.30;;;;;;;20.99;75.19;98875.13;5063675;28;20017;-65
2021/07/15 10:16:46;;;;;;;5.20;2.60;;;;;;;21.27;75.05;99035.06;5063941;28;20107;-65
2021/07/15 10:19:22;;;;;;;2.75;2.10;;;;;;;21.51;74.57;98974.72;5063650;28;20023;-65
2021/07/15 10:22:07;;;;;;;2.25;1.48;;;;;;;21.65;72.50;98960.53;5063499;28;20032;-65
2021/07/15 10:24:34;;;;;;;3.45;1.58;;;;;;;21.48;73.05;98982.94;5063564;28;20044;-65
2021/07/15 10:27:03;;;;;;;1.95;1.52;;;;;;;21.66;72.44;98962.25;5063584;28;20032;-65
2021/07/15 10:29:31;;;;;;;3.38;1.52;;;;;;;21.80;71.42;98960.50;5063867;28;20031;-65
2021/07/15 10:31:57;;;;;;;2.65;1.60;;;;;;;21.77;72.71;98949.13;5063493;28;20021;-65
2021/07/15 10:34:25;;;;;;;3.72;1.60;;;;;;;21.80;72.09;98991.81;5063498;28;20197;-65
2021/07/15 10:36:55;;;;;;;2.35;1.40;;;;;;;21.82;71.20;98963.97;5063479;28;20051;-65
2021/07/15 10:39:23;;;;;;;1.80;1.50;;;;;;;22.10;71.10;98942.59;5063427;28;20017;-65
2021/07/15 10:41:50;;;;;;;2.63;1.80;;;;;;;21.99;72.33;98918.25;5063354;28;20235;-65
2021/07/15 10:44:17;;;;;;;2.25;1.60;;;;;;;21.98;70.91;98910.28;5064951;28;20024;-65
2021/07/15 10:46:42;;;;;;;3.03;1.58;;;;;;;21.53;71.62;98886.22;5067213;28;20021;-65
2021/07/15 10:49:09;;;;;;;2.33;1.55;;;;;;;21.66;70.52;98892.59;5067145;28;20035;-65
2021/07/15 10:51:36;;;;;;;4.63;1.23;;;;;;;21.75;72.61;98897.44;5067069;28;20024;-65
2021/07/15 10:54:04;;;;;;;2.05;1.10;;;;;;;21.73;72.18;98872.53;5067042;28;20211;-65
2021/07/15 10:56:30;;;;;;;1.63;1.30;;;;;;;21.78;72.06;98883.84;5066969;28;20020;-65
2021/07/15 10:58:56;;;;;;;0.90;0.82;;;;;;;22.01;69.78;98877.94;5066981;28;20095;-65
2021/07/15 11:01:35;;;;;;;1.30;1.10;;;;;;;22.30;68.30;98880.56;5066842;28;20316;-65
2021/07/15 11:04:04;;;;;;;3.75;1.27;;;;;;;22.32;68.97;98864.38;5066787;28;20250;-65
2021/07/15 11:06:43;;;;;;;2.55;1.20;;;;;;;22.68;67.32;98854.00;5066683;28;20039;-65
2021/07/15 11:09:11;;;;;;;1.88;1.10;;;;;;;22.81;65.77;98852.28;5066769;28;20029;-65
2021/07/15 11:11:44;;;;;;;3.42;1.23;;;;;;;23.05;67.35;98853.31;5066969;28;20016;-65
2021/07/15 11:14:43;;;;;;;1.20;1.05;;;;;;;22.93;64.47;98849.63;5066659;28;20020;-65
2021/07/15 11:17:20;;;;;;;1.45;1.08;;;;;;;22.76;63.75;98832.91;5066621;28;20021;-65
2021/07/15 11:20:01;;;;;;;4.20;1.45;;;;;;;22.84;68.28;98838.63;5066648;28;20020;-65
2021/07/15 11:22:34;;;;;;;1.58;1.27;;;;;;;23.69;69.46;98963.63;5066586;28;20024;-65
2021/07/15 11:25:03;;;;;;;2.65;1.42;;;;;;;23.72;64.53;98904.28;5065334;28;20312;-65
2021/07/15 11:27:34;;;;;;;3.00;1.30;;;;;;;23.58;64.10;98879.31;5066402;28;20016;-66
2021/07/15 11:30:00;;;;;;;3.57;1.43;;;;;;;23.30;67.47;98861.53;5066432;28;20029;-66
2021/07/15 11:32:27;;;;;;;2.67;1.05;;;;;;;23.00;65.51;98844.75;5066370;28;20024;-66
2021/07/15 11:34:55;;;;;;;5.25;1.30;;;;;;;22.71;69.78;98843.06;5066265;28;20070;-66
2021/07/15 11:37:26;;;;;;;2.50;0.98;;;;;;;22.64;69.18;98825.66;5066215;28;20075;-66